sensor_id;sensor_type;location;lat;lon;timestamp;P1;durP1;ratioP1;P2;durP2;ratioP2
25107;SDS011;13090;53.422;7.670;2022-07-29T00:04:14;1.25;;;0.80;;
25107;SDS011;13090;53.422;7.670;2022-07-29T00:09:17;3.97;;;0.90;;
25107;SDS011;13090;53.422;7.670;2022-07-29T00:14:21;7.30;;;1.17;;
25107;SDS011;13090;53.422;7.670;2022-07-29T00:19:23;2.10;;;1.00;;
25107;SDS011;13090;53.422;7.670;2022-07-29T00:24:26;1.30;;;0.93;;
25107;SDS011;13090;53.422;7.670;2022-07-29T00:29:29;1.52;;;0.88;;
25107;SDS011;13090;53.422;7.670;2022-07-29T00:34:35;2.83;;;0.90;;
25107;SDS011;13090;53.422;7.670;2022-07-29T00:39:37;2.03;;;1.13;;
25107;SDS011;13090;53.422;7.670;2022-07-29T00:44:41;1.23;;;1.00;;
25107;SDS011;13090;53.422;7.670;2022-07-29T00:49:43;2.72;;;0.88;;
25107;SDS011;13090;53.422;7.670;2022-07-29T00:54:46;1.75;;;0.88;;
25107;SDS011;13090;53.422;7.670;2022-07-29T00:59:49;1.75;;;0.90;;
25107;SDS011;13090;53.422;7.670;2022-07-29T01:04:52;0.85;;;0.80;;
25107;SDS011;13090;53.422;7.670;2022-07-29T01:09:55;1.08;;;0.80;;
25107;SDS011;13090;53.422;7.670;2022-07-29T01:15:01;1.38;;;0.80;;
25107;SDS011;13090;53.422;7.670;2022-07-29T01:20:07;1.65;;;0.85;;
25107;SDS011;13090;53.422;7.670;2022-07-29T01:25:22;1.05;;;0.80;;
25107;SDS011;13090;53.422;7.670;2022-07-29T01:30:39;1.42;;;0.90;;
25107;SDS011;13090;53.422;7.670;2022-07-29T01:35:45;2.15;;;0.85;;
25107;SDS011;13090;53.422;7.670;2022-07-29T01:40:49;2.15;;;0.80;;
25107;SDS011;13090;53.422;7.670;2022-07-29T01:45:57;2.50;;;1.00;;
25107;SDS011;13090;53.422;7.670;2022-07-29T01:56:09;1.05;;;0.73;;
25107;SDS011;13090;53.422;7.670;2022-07-29T02:01:14;3.03;;;0.70;;
25107;SDS011;13090;53.422;7.670;2022-07-29T02:06:19;1.65;;;1.05;;
25107;SDS011;13090;53.422;7.670;2022-07-29T02:11:24;1.30;;;0.70;;
25107;SDS011;13090;53.422;7.670;2022-07-29T02:16:30;1.50;;;0.80;;
25107;SDS011;13090;53.422;7.670;2022-07-29T02:21:34;2.77;;;1.00;;
25107;SDS011;13090;53.422;7.670;2022-07-29T02:26:37;1.30;;;1.05;;
25107;SDS011;13090;53.422;7.670;2022-07-29T02:31:44;2.15;;;1.20;;
25107;SDS011;13090;53.422;7.670;2022-07-29T02:36:49;2.70;;;0.90;;
25107;SDS011;13090;53.422;7.670;2022-07-29T02:41:55;1.15;;;0.98;;
25107;SDS011;13090;53.422;7.670;2022-07-29T02:47:06;1.83;;;1.10;;
25107;SDS011;13090;53.422;7.670;2022-07-29T02:52:16;3.13;;;1.08;;
25107;SDS011;13090;53.422;7.670;2022-07-29T02:57:27;1.58;;;0.98;;
25107;SDS011;13090;53.422;7.670;2022-07-29T03:02:36;1.73;;;0.70;;
25107;SDS011;13090;53.422;7.670;2022-07-29T03:07:43;4.10;;;1.27;;
25107;SDS011;13090;53.422;7.670;2022-07-29T03:12:48;2.97;;;0.90;;
25107;SDS011;13090;53.422;7.670;2022-07-29T03:17:53;2.03;;;1.13;;
25107;SDS011;13090;53.422;7.670;2022-07-29T03:22:55;1.27;;;1.10;;
25107;SDS011;13090;53.422;7.670;2022-07-29T03:27:58;1.83;;;0.70;;
25107;SDS011;13090;53.422;7.670;2022-07-29T03:33:05;1.00;;;0.70;;
25107;SDS011;13090;53.422;7.670;2022-07-29T03:38:14;3.17;;;0.90;;
25107;SDS011;13090;53.422;7.670;2022-07-29T03:43:16;1.65;;;0.90;;
25107;SDS011;13090;53.422;7.670;2022-07-29T03:48:22;2.90;;;1.25;;
25107;SDS011;13090;53.422;7.670;2022-07-29T03:53:26;1.48;;;0.85;;
25107;SDS011;13090;53.422;7.670;2022-07-29T03:58:30;1.90;;;0.95;;
25107;SDS011;13090;53.422;7.670;2022-07-29T04:03:34;3.88;;;1.27;;
25107;SDS011;13090;53.422;7.670;2022-07-29T04:08:37;2.42;;;1.08;;
25107;SDS011;13090;53.422;7.670;2022-07-29T04:13:40;8.13;;;1.38;;
25107;SDS011;13090;53.422;7.670;2022-07-29T04:18:43;2.67;;;1.10;;
25107;SDS011;13090;53.422;7.670;2022-07-29T04:23:46;1.80;;;1.10;;
25107;SDS011;13090;53.422;7.670;2022-07-29T04:28:54;2.15;;;1.25;;
25107;SDS011;13090;53.422;7.670;2022-07-29T04:33:58;2.15;;;1.50;;
25107;SDS011;13090;53.422;7.670;2022-07-29T04:39:00;3.42;;;1.50;;
25107;SDS011;13090;53.422;7.670;2022-07-29T04:44:03;1.63;;;1.17;;
25107;SDS011;13090;53.422;7.670;2022-07-29T04:49:08;2.67;;;1.00;;
25107;SDS011;13090;53.422;7.670;2022-07-29T04:54:11;5.15;;;1.90;;
25107;SDS011;13090;53.422;7.670;2022-07-29T04:59:14;6.72;;;1.50;;
25107;SDS011;13090;53.422;7.670;2022-07-29T05:04:18;2.95;;;1.40;;
25107;SDS011;13090;53.422;7.670;2022-07-29T05:09:21;2.33;;;1.30;;
25107;SDS011;13090;53.422;7.670;2022-07-29T05:14:23;2.47;;;1.85;;
25107;SDS011;13090;53.422;7.670;2022-07-29T05:19:28;9.63;;;4.15;;
25107;SDS011;13090;53.422;7.670;2022-07-29T05:24:31;7.80;;;1.88;;
25107;SDS011;13090;53.422;7.670;2022-07-29T05:29:33;3.00;;;1.35;;
25107;SDS011;13090;53.422;7.670;2022-07-29T05:34:47;4.95;;;1.60;;
25107;SDS011;13090;53.422;7.670;2022-07-29T05:39:52;5.60;;;1.20;;
25107;SDS011;13090;53.422;7.670;2022-07-29T05:44:57;2.65;;;1.27;;
25107;SDS011;13090;53.422;7.670;2022-07-29T05:50:01;1.30;;;1.15;;
25107;SDS011;13090;53.422;7.670;2022-07-29T05:55:04;3.83;;;1.58;;
25107;SDS011;13090;53.422;7.670;2022-07-29T06:00:08;2.17;;;1.10;;
25107;SDS011;13090;53.422;7.670;2022-07-29T06:05:13;3.50;;;1.20;;
25107;SDS011;13090;53.422;7.670;2022-07-29T06:10:17;4.18;;;1.75;;
25107;SDS011;13090;53.422;7.670;2022-07-29T06:15:24;3.93;;;1.50;;
25107;SDS011;13090;53.422;7.670;2022-07-29T06:20:28;3.22;;;1.50;;
25107;SDS011;13090;53.422;7.670;2022-07-29T06:25:32;4.15;;;1.70;;
25107;SDS011;13090;53.422;7.670;2022-07-29T06:30:34;3.53;;;1.48;;
25107;SDS011;13090;53.422;7.670;2022-07-29T06:35:39;4.80;;;1.70;;
25107;SDS011;13090;53.422;7.670;2022-07-29T06:40:53;6.27;;;1.43;;
25107;SDS011;13090;53.422;7.670;2022-07-29T06:45:56;2.38;;;1.52;;
25107;SDS011;13090;53.422;7.670;2022-07-29T06:51:01;3.97;;;1.67;;
25107;SDS011;13090;53.422;7.670;2022-07-29T06:56:05;1.92;;;1.40;;
25107;SDS011;13090;53.422;7.670;2022-07-29T07:01:08;5.30;;;1.85;;
25107;SDS011;13090;53.422;7.670;2022-07-29T07:06:15;3.40;;;1.83;;
25107;SDS011;13090;53.422;7.670;2022-07-29T07:11:39;4.78;;;1.90;;
25107;SDS011;13090;53.422;7.670;2022-07-29T07:16:43;3.67;;;1.63;;
25107;SDS011;13090;53.422;7.670;2022-07-29T07:21:47;2.38;;;1.58;;
25107;SDS011;13090;53.422;7.670;2022-07-29T07:26:49;3.63;;;1.88;;
25107;SDS011;13090;53.422;7.670;2022-07-29T07:31:52;2.17;;;1.40;;
25107;SDS011;13090;53.422;7.670;2022-07-29T07:37:02;4.75;;;1.75;;
25107;SDS011;13090;53.422;7.670;2022-07-29T07:42:05;2.78;;;1.42;;
25107;SDS011;13090;53.422;7.670;2022-07-29T07:47:07;2.90;;;1.40;;
25107;SDS011;13090;53.422;7.670;2022-07-29T07:52:14;3.17;;;1.60;;
25107;SDS011;13090;53.422;7.670;2022-07-29T07:57:18;4.00;;;1.50;;
25107;SDS011;13090;53.422;7.670;2022-07-29T08:02:20;2.58;;;1.33;;
25107;SDS011;13090;53.422;7.670;2022-07-29T08:07:24;2.88;;;1.35;;
25107;SDS011;13090;53.422;7.670;2022-07-29T08:12:27;2.70;;;1.70;;
25107;SDS011;13090;53.422;7.670;2022-07-29T08:17:29;5.43;;;1.67;;
25107;SDS011;13090;53.422;7.670;2022-07-29T08:22:37;2.33;;;1.40;;
25107;SDS011;13090;53.422;7.670;2022-07-29T08:27:39;3.38;;;1.33;;
25107;SDS011;13090;53.422;7.670;2022-07-29T08:32:44;2.35;;;1.30;;
25107;SDS011;13090;53.422;7.670;2022-07-29T08:37:56;7.05;;;1.77;;
25107;SDS011;13090;53.422;7.670;2022-07-29T08:43:04;6.07;;;3.45;;
25107;SDS011;13090;53.422;7.670;2022-07-29T08:48:07;3.42;;;1.35;;
25107;SDS011;13090;53.422;7.670;2022-07-29T08:53:12;4.72;;;1.50;;
25107;SDS011;13090;53.422;7.670;2022-07-29T08:58:16;2.97;;;1.20;;
25107;SDS011;13090;53.422;7.670;2022-07-29T09:03:25;3.20;;;1.38;;
25107;SDS011;13090;53.422;7.670;2022-07-29T09:08:34;7.43;;;1.67;;
25107;SDS011;13090;53.422;7.670;2022-07-29T09:13:36;3.47;;;1.73;;
25107;SDS011;13090;53.422;7.670;2022-07-29T09:18:39;2.83;;;1.40;;
25107;SDS011;13090;53.422;7.670;2022-07-29T09:29:09;3.22;;;1.50;;
25107;SDS011;13090;53.422;7.670;2022-07-29T09:34:13;3.53;;;1.30;;
25107;SDS011;13090;53.422;7.670;2022-07-29T09:39:28;2.22;;;1.23;;
25107;SDS011;13090;53.422;7.670;2022-07-29T09:44:42;2.80;;;1.20;;
25107;SDS011;13090;53.422;7.670;2022-07-29T09:49:54;2.50;;;1.48;;
25107;SDS011;13090;53.422;7.670;2022-07-29T09:55:05;6.85;;;1.45;;
25107;SDS011;13090;53.422;7.670;2022-07-29T10:00:10;5.30;;;1.83;;
25107;SDS011;13090;53.422;7.670;2022-07-29T10:05:19;6.18;;;2.05;;
25107;SDS011;13090;53.422;7.670;2022-07-29T10:10:25;4.93;;;1.80;;
25107;SDS011;13090;53.422;7.670;2022-07-29T10:15:30;4.63;;;1.45;;
25107;SDS011;13090;53.422;7.670;2022-07-29T10:20:34;2.70;;;1.40;;
25107;SDS011;13090;53.422;7.670;2022-07-29T10:25:38;3.25;;;1.40;;
25107;SDS011;13090;53.422;7.670;2022-07-29T10:30:47;2.75;;;1.63;;
25107;SDS011;13090;53.422;7.670;2022-07-29T10:35:56;3.58;;;1.80;;
25107;SDS011;13090;53.422;7.670;2022-07-29T10:41:23;3.05;;;1.67;;
25107;SDS011;13090;53.422;7.670;2022-07-29T10:46:45;5.38;;;1.58;;
25107;SDS011;13090;53.422;7.670;2022-07-29T10:51:51;3.47;;;1.80;;
25107;SDS011;13090;53.422;7.670;2022-07-29T10:57:11;3.78;;;1.38;;
25107;SDS011;13090;53.422;7.670;2022-07-29T11:24:31;3.72;;;2.10;;
25107;SDS011;13090;53.422;7.670;2022-07-29T11:29:38;1.90;;;1.20;;
25107;SDS011;13090;53.422;7.670;2022-07-29T11:34:43;7.00;;;1.88;;
25107;SDS011;13090;53.422;7.670;2022-07-29T11:39:47;3.38;;;1.77;;
25107;SDS011;13090;53.422;7.670;2022-07-29T11:45:13;3.85;;;1.33;;
25107;SDS011;13090;53.422;7.670;2022-07-29T11:50:38;5.97;;;2.00;;
25107;SDS011;13090;53.422;7.670;2022-07-29T11:56:02;4.82;;;1.55;;
25107;SDS011;13090;53.422;7.670;2022-07-29T12:01:14;6.13;;;1.90;;
25107;SDS011;13090;53.422;7.670;2022-07-29T12:06:19;6.65;;;3.72;;
25107;SDS011;13090;53.422;7.670;2022-07-29T12:11:23;4.82;;;1.80;;
25107;SDS011;13090;53.422;7.670;2022-07-29T12:16:35;5.88;;;1.90;;
25107;SDS011;13090;53.422;7.670;2022-07-29T12:21:44;5.28;;;2.00;;
25107;SDS011;13090;53.422;7.670;2022-07-29T12:26:59;4.50;;;1.43;;
25107;SDS011;13090;53.422;7.670;2022-07-29T12:32:04;4.73;;;1.70;;
25107;SDS011;13090;53.422;7.670;2022-07-29T12:37:21;5.68;;;1.98;;
25107;SDS011;13090;53.422;7.670;2022-07-29T12:42:42;2.97;;;1.50;;
25107;SDS011;13090;53.422;7.670;2022-07-29T12:48:14;3.42;;;1.67;;
25107;SDS011;13090;53.422;7.670;2022-07-29T12:53:18;4.18;;;1.50;;
25107;SDS011;13090;53.422;7.670;2022-07-29T12:58:28;4.90;;;1.98;;
25107;SDS011;13090;53.422;7.670;2022-07-29T13:03:49;7.40;;;2.25;;
25107;SDS011;13090;53.422;7.670;2022-07-29T13:08:58;4.15;;;1.75;;
25107;SDS011;13090;53.422;7.670;2022-07-29T13:14:03;10.02;;;2.10;;
25107;SDS011;13090;53.422;7.670;2022-07-29T13:19:12;3.88;;;1.60;;
25107;SDS011;13090;53.422;7.670;2022-07-29T13:24:16;3.00;;;1.52;;
25107;SDS011;13090;53.422;7.670;2022-07-29T13:29:20;2.65;;;1.48;;
25107;SDS011;13090;53.422;7.670;2022-07-29T13:34:25;2.72;;;1.55;;
25107;SDS011;13090;53.422;7.670;2022-07-29T13:39:28;2.33;;;1.30;;
25107;SDS011;13090;53.422;7.670;2022-07-29T13:44:30;3.15;;;1.42;;
25107;SDS011;13090;53.422;7.670;2022-07-29T13:49:35;2.33;;;1.33;;
25107;SDS011;13090;53.422;7.670;2022-07-29T13:54:39;8.53;;;1.87;;
25107;SDS011;13090;53.422;7.670;2022-07-29T13:59:43;3.38;;;1.38;;
25107;SDS011;13090;53.422;7.670;2022-07-29T14:04:49;3.85;;;1.60;;
25107;SDS011;13090;53.422;7.670;2022-07-29T14:09:51;3.95;;;1.58;;
25107;SDS011;13090;53.422;7.670;2022-07-29T14:14:54;3.13;;;1.40;;
25107;SDS011;13090;53.422;7.670;2022-07-29T14:19:57;10.50;;;6.65;;
25107;SDS011;13090;53.422;7.670;2022-07-29T14:25:00;12.38;;;8.38;;
25107;SDS011;13090;53.422;7.670;2022-07-29T14:30:15;5.82;;;2.80;;
25107;SDS011;13090;53.422;7.670;2022-07-29T14:35:19;9.43;;;4.68;;
25107;SDS011;13090;53.422;7.670;2022-07-29T14:40:22;4.85;;;2.60;;
25107;SDS011;13090;53.422;7.670;2022-07-29T14:45:24;6.13;;;3.15;;
25107;SDS011;13090;53.422;7.670;2022-07-29T14:50:28;5.03;;;2.10;;
25107;SDS011;13090;53.422;7.670;2022-07-29T14:55:32;4.93;;;2.20;;
25107;SDS011;13090;53.422;7.670;2022-07-29T15:00:35;3.42;;;1.92;;
25107;SDS011;13090;53.422;7.670;2022-07-29T15:05:38;3.13;;;2.40;;
25107;SDS011;13090;53.422;7.670;2022-07-29T15:10:41;9.45;;;2.30;;
25107;SDS011;13090;53.422;7.670;2022-07-29T15:15:43;3.10;;;1.90;;
25107;SDS011;13090;53.422;7.670;2022-07-29T15:20:49;2.45;;;1.77;;
25107;SDS011;13090;53.422;7.670;2022-07-29T15:25:52;2.83;;;1.83;;
25107;SDS011;13090;53.422;7.670;2022-07-29T15:30:54;3.85;;;1.85;;
25107;SDS011;13090;53.422;7.670;2022-07-29T15:35:58;5.30;;;1.58;;
25107;SDS011;13090;53.422;7.670;2022-07-29T15:41:01;12.23;;;2.03;;
25107;SDS011;13090;53.422;7.670;2022-07-29T15:46:03;2.55;;;1.55;;
25107;SDS011;13090;53.422;7.670;2022-07-29T15:51:08;3.92;;;1.80;;
25107;SDS011;13090;53.422;7.670;2022-07-29T15:56:10;3.70;;;1.88;;
25107;SDS011;13090;53.422;7.670;2022-07-29T16:01:12;4.15;;;2.22;;
25107;SDS011;13090;53.422;7.670;2022-07-29T16:06:17;8.18;;;4.95;;
25107;SDS011;13090;53.422;7.670;2022-07-29T16:11:19;10.95;;;7.80;;
25107;SDS011;13090;53.422;7.670;2022-07-29T16:16:21;7.93;;;5.13;;
25107;SDS011;13090;53.422;7.670;2022-07-29T16:21:25;6.60;;;4.25;;
25107;SDS011;13090;53.422;7.670;2022-07-29T16:26:28;6.25;;;3.67;;
25107;SDS011;13090;53.422;7.670;2022-07-29T16:31:30;5.05;;;3.20;;
25107;SDS011;13090;53.422;7.670;2022-07-29T16:36:34;4.68;;;2.30;;
25107;SDS011;13090;53.422;7.670;2022-07-29T16:41:37;6.93;;;2.88;;
25107;SDS011;13090;53.422;7.670;2022-07-29T16:46:40;5.18;;;2.58;;
25107;SDS011;13090;53.422;7.670;2022-07-29T16:51:46;5.05;;;1.92;;
25107;SDS011;13090;53.422;7.670;2022-07-29T16:56:48;2.88;;;2.20;;
25107;SDS011;13090;53.422;7.670;2022-07-29T17:01:51;6.90;;;1.80;;
25107;SDS011;13090;53.422;7.670;2022-07-29T17:06:55;4.28;;;2.30;;
25107;SDS011;13090;53.422;7.670;2022-07-29T17:11:58;4.50;;;1.60;;
25107;SDS011;13090;53.422;7.670;2022-07-29T17:17:01;3.05;;;1.52;;
25107;SDS011;13090;53.422;7.670;2022-07-29T17:22:05;3.30;;;1.92;;
25107;SDS011;13090;53.422;7.670;2022-07-29T17:27:16;3.33;;;1.40;;
25107;SDS011;13090;53.422;7.670;2022-07-29T17:32:19;2.83;;;1.52;;
25107;SDS011;13090;53.422;7.670;2022-07-29T17:37:23;2.45;;;1.20;;
25107;SDS011;13090;53.422;7.670;2022-07-29T17:42:25;1.98;;;1.20;;
25107;SDS011;13090;53.422;7.670;2022-07-29T17:47:28;5.80;;;2.45;;
25107;SDS011;13090;53.422;7.670;2022-07-29T17:52:32;5.22;;;3.67;;
25107;SDS011;13090;53.422;7.670;2022-07-29T17:57:35;6.28;;;3.63;;
25107;SDS011;13090;53.422;7.670;2022-07-29T18:02:37;5.60;;;3.67;;
25107;SDS011;13090;53.422;7.670;2022-07-29T18:07:41;4.95;;;2.47;;
25107;SDS011;13090;53.422;7.670;2022-07-29T18:12:43;4.00;;;1.88;;
25107;SDS011;13090;53.422;7.670;2022-07-29T18:17:46;8.43;;;2.17;;
25107;SDS011;13090;53.422;7.670;2022-07-29T18:22:59;3.53;;;1.98;;
25107;SDS011;13090;53.422;7.670;2022-07-29T18:28:02;2.63;;;1.80;;
25107;SDS011;13090;53.422;7.670;2022-07-29T18:33:05;4.68;;;1.75;;
25107;SDS011;13090;53.422;7.670;2022-07-29T18:38:25;2.75;;;1.50;;
25107;SDS011;13090;53.422;7.670;2022-07-29T18:43:27;2.55;;;1.45;;
25107;SDS011;13090;53.422;7.670;2022-07-29T18:48:30;1.45;;;1.20;;
25107;SDS011;13090;53.422;7.670;2022-07-29T18:53:34;1.90;;;1.10;;
25107;SDS011;13090;53.422;7.670;2022-07-29T18:58:37;2.95;;;1.38;;
25107;SDS011;13090;53.422;7.670;2022-07-29T19:03:39;1.38;;;1.17;;
25107;SDS011;13090;53.422;7.670;2022-07-29T19:08:43;3.17;;;1.30;;
25107;SDS011;13090;53.422;7.670;2022-07-29T19:13:46;3.22;;;1.60;;
25107;SDS011;13090;53.422;7.670;2022-07-29T19:18:48;3.05;;;1.20;;
25107;SDS011;13090;53.422;7.670;2022-07-29T19:23:52;2.13;;;1.30;;
25107;SDS011;13090;53.422;7.670;2022-07-29T19:29:09;3.45;;;1.60;;
25107;SDS011;13090;53.422;7.670;2022-07-29T19:34:11;2.35;;;1.50;;
25107;SDS011;13090;53.422;7.670;2022-07-29T19:39:15;5.40;;;1.40;;
25107;SDS011;13090;53.422;7.670;2022-07-29T19:44:35;2.97;;;1.40;;
25107;SDS011;13090;53.422;7.670;2022-07-29T19:49:37;3.60;;;1.58;;
25107;SDS011;13090;53.422;7.670;2022-07-29T19:54:41;1.55;;;1.27;;
25107;SDS011;13090;53.422;7.670;2022-07-29T19:59:44;3.10;;;1.45;;
25107;SDS011;13090;53.422;7.670;2022-07-29T20:04:47;8.35;;;1.60;;
25107;SDS011;13090;53.422;7.670;2022-07-29T20:09:51;3.03;;;1.60;;
25107;SDS011;13090;53.422;7.670;2022-07-29T20:14:53;3.08;;;1.65;;
25107;SDS011;13090;53.422;7.670;2022-07-29T20:19:56;3.20;;;1.35;;
25107;SDS011;13090;53.422;7.670;2022-07-29T20:25:00;5.25;;;1.60;;
25107;SDS011;13090;53.422;7.670;2022-07-29T20:30:03;1.58;;;1.40;;
25107;SDS011;13090;53.422;7.670;2022-07-29T20:35:08;2.50;;;1.30;;
25107;SDS011;13090;53.422;7.670;2022-07-29T20:40:12;3.13;;;1.88;;
25107;SDS011;13090;53.422;7.670;2022-07-29T20:45:15;4.50;;;1.98;;
25107;SDS011;13090;53.422;7.670;2022-07-29T20:50:18;4.00;;;1.70;;
25107;SDS011;13090;53.422;7.670;2022-07-29T20:55:25;2.70;;;2.03;;
25107;SDS011;13090;53.422;7.670;2022-07-29T21:00:28;5.10;;;2.30;;
25107;SDS011;13090;53.422;7.670;2022-07-29T21:05:31;2.78;;;2.03;;
25107;SDS011;13090;53.422;7.670;2022-07-29T21:10:35;2.60;;;1.75;;
25107;SDS011;13090;53.422;7.670;2022-07-29T21:15:37;7.00;;;1.70;;
25107;SDS011;13090;53.422;7.670;2022-07-29T21:20:40;4.78;;;1.90;;
25107;SDS011;13090;53.422;7.670;2022-07-29T21:25:44;3.85;;;1.60;;
25107;SDS011;13090;53.422;7.670;2022-07-29T21:30:46;3.35;;;1.92;;
25107;SDS011;13090;53.422;7.670;2022-07-29T21:35:48;2.42;;;1.75;;
25107;SDS011;13090;53.422;7.670;2022-07-29T21:41:13;3.83;;;2.03;;
25107;SDS011;13090;53.422;7.670;2022-07-29T21:46:16;4.43;;;2.25;;
25107;SDS011;13090;53.422;7.670;2022-07-29T21:51:18;4.05;;;1.88;;
25107;SDS011;13090;53.422;7.670;2022-07-29T21:56:22;2.30;;;1.70;;
25107;SDS011;13090;53.422;7.670;2022-07-29T22:06:39;3.58;;;1.80;;
25107;SDS011;13090;53.422;7.670;2022-07-29T22:11:43;4.20;;;2.15;;
25107;SDS011;13090;53.422;7.670;2022-07-29T22:16:46;5.03;;;1.92;;
25107;SDS011;13090;53.422;7.670;2022-07-29T22:21:49;6.22;;;2.10;;
25107;SDS011;13090;53.422;7.670;2022-07-29T22:26:53;7.03;;;2.38;;
25107;SDS011;13090;53.422;7.670;2022-07-29T22:31:56;4.82;;;2.10;;
25107;SDS011;13090;53.422;7.670;2022-07-29T22:36:58;2.75;;;2.13;;
25107;SDS011;13090;53.422;7.670;2022-07-29T22:42:03;4.07;;;1.63;;
25107;SDS011;13090;53.422;7.670;2022-07-29T22:47:06;2.15;;;1.90;;
25107;SDS011;13090;53.422;7.670;2022-07-29T22:52:08;2.10;;;1.80;;
25107;SDS011;13090;53.422;7.670;2022-07-29T22:57:12;3.90;;;2.50;;
25107;SDS011;13090;53.422;7.670;2022-07-29T23:02:15;3.45;;;2.28;;
25107;SDS011;13090;53.422;7.670;2022-07-29T23:07:17;5.43;;;2.20;;
25107;SDS011;13090;53.422;7.670;2022-07-29T23:12:21;3.15;;;2.10;;
25107;SDS011;13090;53.422;7.670;2022-07-29T23:17:23;5.32;;;2.40;;
25107;SDS011;13090;53.422;7.670;2022-07-29T23:22:26;4.35;;;2.88;;
25107;SDS011;13090;53.422;7.670;2022-07-29T23:27:30;3.67;;;2.40;;
25107;SDS011;13090;53.422;7.670;2022-07-29T23:32:32;3.22;;;2.28;;
25107;SDS011;13090;53.422;7.670;2022-07-29T23:37:35;3.10;;;2.15;;
25107;SDS011;13090;53.422;7.670;2022-07-29T23:42:39;4.15;;;2.50;;
25107;SDS011;13090;53.422;7.670;2022-07-29T23:47:42;5.05;;;2.30;;
25107;SDS011;13090;53.422;7.670;2022-07-29T23:52:45;2.58;;;2.03;;
25107;SDS011;13090;53.422;7.670;2022-07-29T23:57:49;3.03;;;2.00;;
